sensor_id;sensor_type;location;lat;lon;timestamp;temperature;humidity
22645;DHT22;11489;50.834;6.752;2022-10-16T00:00:43;13.50;88.00
22645;DHT22;11489;50.834;6.752;2022-10-16T00:03:09;13.50;88.00
22645;DHT22;11489;50.834;6.752;2022-10-16T00:05:41;13.50;88.00
22645;DHT22;11489;50.834;6.752;2022-10-16T00:08:08;13.50;88.10
22645;DHT22;11489;50.834;6.752;2022-10-16T00:10:34;13.50;87.90
22645;DHT22;11489;50.834;6.752;2022-10-16T00:13:00;13.50;87.90
22645;DHT22;11489;50.834;6.752;2022-10-16T00:15:26;13.50;87.90
22645;DHT22;11489;50.834;6.752;2022-10-16T00:17:51;13.40;87.80
22645;DHT22;11489;50.834;6.752;2022-10-16T00:20:17;13.40;87.80
22645;DHT22;11489;50.834;6.752;2022-10-16T00:22:43;13.40;87.90
22645;DHT22;11489;50.834;6.752;2022-10-16T00:25:09;13.40;87.90
22645;DHT22;11489;50.834;6.752;2022-10-16T00:27:35;13.40;87.90
22645;DHT22;11489;50.834;6.752;2022-10-16T00:30:00;13.40;87.90
22645;DHT22;11489;50.834;6.752;2022-10-16T00:32:26;13.40;87.90
22645;DHT22;11489;50.834;6.752;2022-10-16T00:34:52;13.40;87.90
22645;DHT22;11489;50.834;6.752;2022-10-16T00:37:20;13.30;87.80
22645;DHT22;11489;50.834;6.752;2022-10-16T00:39:46;13.30;87.80
22645;DHT22;11489;50.834;6.752;2022-10-16T00:42:17;13.30;87.80
22645;DHT22;11489;50.834;6.752;2022-10-16T00:44:45;13.30;87.90
22645;DHT22;11489;50.834;6.752;2022-10-16T00:47:15;13.20;87.70
22645;DHT22;11489;50.834;6.752;2022-10-16T00:49:43;13.20;87.80
22645;DHT22;11489;50.834;6.752;2022-10-16T00:52:09;13.20;87.80
22645;DHT22;11489;50.834;6.752;2022-10-16T00:54:35;13.20;88.00
22645;DHT22;11489;50.834;6.752;2022-10-16T00:57:05;13.10;88.00
22645;DHT22;11489;50.834;6.752;2022-10-16T00:59:34;13.10;88.00
22645;DHT22;11489;50.834;6.752;2022-10-16T01:02:02;13.10;88.00
22645;DHT22;11489;50.834;6.752;2022-10-16T01:04:32;13.10;88.00
22645;DHT22;11489;50.834;6.752;2022-10-16T01:07:53;13.10;88.00
22645;DHT22;11489;50.834;6.752;2022-10-16T01:13:10;13.00;87.70
22645;DHT22;11489;50.834;6.752;2022-10-16T01:16:04;13.00;87.80
22645;DHT22;11489;50.834;6.752;2022-10-16T01:21:39;12.90;87.70
22645;DHT22;11489;50.834;6.752;2022-10-16T01:29:55;12.80;88.00
22645;DHT22;11489;50.834;6.752;2022-10-16T01:32:38;12.80;88.00
22645;DHT22;11489;50.834;6.752;2022-10-16T01:35:21;12.70;88.30
22645;DHT22;11489;50.834;6.752;2022-10-16T01:38:04;12.70;88.10
22645;DHT22;11489;50.834;6.752;2022-10-16T01:40:34;12.70;88.10
22645;DHT22;11489;50.834;6.752;2022-10-16T01:43:25;12.60;88.60
22645;DHT22;11489;50.834;6.752;2022-10-16T01:45:52;12.60;88.40
22645;DHT22;11489;50.834;6.752;2022-10-16T01:48:19;12.60;88.10
22645;DHT22;11489;50.834;6.752;2022-10-16T01:50:56;12.50;88.10
22645;DHT22;11489;50.834;6.752;2022-10-16T01:53:23;12.50;88.40
22645;DHT22;11489;50.834;6.752;2022-10-16T01:55:52;12.40;88.50
22645;DHT22;11489;50.834;6.752;2022-10-16T01:58:21;12.40;88.70
22645;DHT22;11489;50.834;6.752;2022-10-16T02:00:50;12.40;88.90
22645;DHT22;11489;50.834;6.752;2022-10-16T02:03:18;12.40;89.00
22645;DHT22;11489;50.834;6.752;2022-10-16T02:05:47;12.40;89.10
22645;DHT22;11489;50.834;6.752;2022-10-16T02:08:14;12.40;89.10
22645;DHT22;11489;50.834;6.752;2022-10-16T02:10:40;12.50;89.20
22645;DHT22;11489;50.834;6.752;2022-10-16T02:13:09;12.50;89.30
22645;DHT22;11489;50.834;6.752;2022-10-16T02:15:36;12.50;89.50
22645;DHT22;11489;50.834;6.752;2022-10-16T02:18:04;12.50;89.50
22645;DHT22;11489;50.834;6.752;2022-10-16T02:20:36;12.50;89.70
22645;DHT22;11489;50.834;6.752;2022-10-16T02:23:07;12.60;89.90
22645;DHT22;11489;50.834;6.752;2022-10-16T02:25:40;12.60;90.00
22645;DHT22;11489;50.834;6.752;2022-10-16T02:28:26;12.60;90.00
22645;DHT22;11489;50.834;6.752;2022-10-16T02:31:02;12.70;90.00
22645;DHT22;11489;50.834;6.752;2022-10-16T02:33:30;12.80;90.00
22645;DHT22;11489;50.834;6.752;2022-10-16T02:35:57;12.80;90.00
22645;DHT22;11489;50.834;6.752;2022-10-16T02:38:24;12.80;90.00
22645;DHT22;11489;50.834;6.752;2022-10-16T02:40:51;12.90;90.00
22645;DHT22;11489;50.834;6.752;2022-10-16T02:43:17;12.90;90.00
22645;DHT22;11489;50.834;6.752;2022-10-16T02:45:43;12.90;89.90
22645;DHT22;11489;50.834;6.752;2022-10-16T02:48:08;13.00;89.80
22645;DHT22;11489;50.834;6.752;2022-10-16T02:50:34;13.10;89.60
22645;DHT22;11489;50.834;6.752;2022-10-16T02:53:00;13.10;89.50
22645;DHT22;11489;50.834;6.752;2022-10-16T02:55:25;13.20;89.40
22645;DHT22;11489;50.834;6.752;2022-10-16T02:57:53;13.20;89.20
22645;DHT22;11489;50.834;6.752;2022-10-16T03:00:20;13.20;89.00
22645;DHT22;11489;50.834;6.752;2022-10-16T03:02:46;13.30;89.00
22645;DHT22;11489;50.834;6.752;2022-10-16T03:05:12;13.30;88.70
22645;DHT22;11489;50.834;6.752;2022-10-16T03:07:38;13.30;88.50
22645;DHT22;11489;50.834;6.752;2022-10-16T03:10:04;13.30;88.20
22645;DHT22;11489;50.834;6.752;2022-10-16T03:12:30;13.30;88.10
22645;DHT22;11489;50.834;6.752;2022-10-16T03:14:56;13.30;87.90
22645;DHT22;11489;50.834;6.752;2022-10-16T03:17:23;13.30;87.90
22645;DHT22;11489;50.834;6.752;2022-10-16T03:19:48;13.20;87.80
22645;DHT22;11489;50.834;6.752;2022-10-16T03:22:14;13.20;87.80
22645;DHT22;11489;50.834;6.752;2022-10-16T03:24:40;13.20;87.90
22645;DHT22;11489;50.834;6.752;2022-10-16T03:27:06;13.20;88.00
22645;DHT22;11489;50.834;6.752;2022-10-16T03:29:32;13.20;88.10
22645;DHT22;11489;50.834;6.752;2022-10-16T03:31:59;13.20;88.20
22645;DHT22;11489;50.834;6.752;2022-10-16T03:34:25;13.20;88.30
22645;DHT22;11489;50.834;6.752;2022-10-16T03:36:51;13.20;88.40
22645;DHT22;11489;50.834;6.752;2022-10-16T03:39:17;13.20;88.40
22645;DHT22;11489;50.834;6.752;2022-10-16T03:41:42;13.20;88.40
22645;DHT22;11489;50.834;6.752;2022-10-16T03:44:08;13.20;88.40
22645;DHT22;11489;50.834;6.752;2022-10-16T03:46:34;13.20;88.40
22645;DHT22;11489;50.834;6.752;2022-10-16T03:48:59;13.20;88.40
22645;DHT22;11489;50.834;6.752;2022-10-16T03:51:25;13.30;88.50
22645;DHT22;11489;50.834;6.752;2022-10-16T03:53:51;13.30;88.50
22645;DHT22;11489;50.834;6.752;2022-10-16T03:56:16;13.30;88.50
22645;DHT22;11489;50.834;6.752;2022-10-16T03:58:42;13.30;88.50
22645;DHT22;11489;50.834;6.752;2022-10-16T04:01:08;13.40;88.50
22645;DHT22;11489;50.834;6.752;2022-10-16T04:03:33;13.40;88.60
22645;DHT22;11489;50.834;6.752;2022-10-16T04:05:59;13.40;88.60
22645;DHT22;11489;50.834;6.752;2022-10-16T04:08:24;13.40;88.50
22645;DHT22;11489;50.834;6.752;2022-10-16T04:10:50;13.50;88.60
22645;DHT22;11489;50.834;6.752;2022-10-16T04:13:16;13.40;88.40
22645;DHT22;11489;50.834;6.752;2022-10-16T04:15:42;13.50;89.20
22645;DHT22;11489;50.834;6.752;2022-10-16T04:18:08;13.50;88.30
22645;DHT22;11489;50.834;6.752;2022-10-16T04:20:34;13.50;88.20
22645;DHT22;11489;50.834;6.752;2022-10-16T04:23:00;13.50;88.10
22645;DHT22;11489;50.834;6.752;2022-10-16T04:25:31;13.50;88.10
22645;DHT22;11489;50.834;6.752;2022-10-16T04:27:57;13.60;88.10
22645;DHT22;11489;50.834;6.752;2022-10-16T04:30:23;13.60;88.00
22645;DHT22;11489;50.834;6.752;2022-10-16T04:32:50;13.60;88.00
22645;DHT22;11489;50.834;6.752;2022-10-16T04:35:19;13.50;87.80
22645;DHT22;11489;50.834;6.752;2022-10-16T04:37:45;13.60;87.90
22645;DHT22;11489;50.834;6.752;2022-10-16T04:40:11;13.60;87.80
22645;DHT22;11489;50.834;6.752;2022-10-16T04:42:37;13.60;87.80
22645;DHT22;11489;50.834;6.752;2022-10-16T04:45:04;13.60;87.70
22645;DHT22;11489;50.834;6.752;2022-10-16T04:47:30;13.50;87.60
22645;DHT22;11489;50.834;6.752;2022-10-16T04:49:56;13.50;87.50
22645;DHT22;11489;50.834;6.752;2022-10-16T04:52:22;13.50;87.50
22645;DHT22;11489;50.834;6.752;2022-10-16T04:54:50;13.40;87.50
22645;DHT22;11489;50.834;6.752;2022-10-16T04:57:16;13.40;87.50
22645;DHT22;11489;50.834;6.752;2022-10-16T04:59:42;13.40;87.60
22645;DHT22;11489;50.834;6.752;2022-10-16T05:02:07;13.40;87.60
22645;DHT22;11489;50.834;6.752;2022-10-16T05:04:33;13.40;88.30
22645;DHT22;11489;50.834;6.752;2022-10-16T05:06:59;13.40;87.70
22645;DHT22;11489;50.834;6.752;2022-10-16T05:09:24;13.30;87.80
22645;DHT22;11489;50.834;6.752;2022-10-16T05:11:50;13.30;87.90
22645;DHT22;11489;50.834;6.752;2022-10-16T05:14:16;13.30;88.00
22645;DHT22;11489;50.834;6.752;2022-10-16T05:16:41;13.30;88.10
22645;DHT22;11489;50.834;6.752;2022-10-16T05:19:07;13.30;88.20
22645;DHT22;11489;50.834;6.752;2022-10-16T05:21:33;13.30;88.40
22645;DHT22;11489;50.834;6.752;2022-10-16T05:23:58;13.30;88.30
22645;DHT22;11489;50.834;6.752;2022-10-16T05:26:24;13.30;88.30
22645;DHT22;11489;50.834;6.752;2022-10-16T05:28:50;13.30;88.30
22645;DHT22;11489;50.834;6.752;2022-10-16T05:31:16;13.30;88.30
22645;DHT22;11489;50.834;6.752;2022-10-16T05:33:41;13.30;88.30
22645;DHT22;11489;50.834;6.752;2022-10-16T05:36:10;13.30;88.20
22645;DHT22;11489;50.834;6.752;2022-10-16T05:38:36;13.20;88.10
22645;DHT22;11489;50.834;6.752;2022-10-16T05:41:03;13.20;88.00
22645;DHT22;11489;50.834;6.752;2022-10-16T05:43:30;13.20;87.90
22645;DHT22;11489;50.834;6.752;2022-10-16T05:46:00;13.20;87.90
22645;DHT22;11489;50.834;6.752;2022-10-16T05:48:26;13.20;87.90
22645;DHT22;11489;50.834;6.752;2022-10-16T05:51:07;13.10;87.70
22645;DHT22;11489;50.834;6.752;2022-10-16T05:53:34;13.10;87.80
22645;DHT22;11489;50.834;6.752;2022-10-16T05:56:01;13.00;87.60
22645;DHT22;11489;50.834;6.752;2022-10-16T05:58:34;13.00;87.60
22645;DHT22;11489;50.834;6.752;2022-10-16T06:01:02;12.90;87.90
22645;DHT22;11489;50.834;6.752;2022-10-16T06:03:28;12.90;88.00
22645;DHT22;11489;50.834;6.752;2022-10-16T06:05:53;12.80;88.00
22645;DHT22;11489;50.834;6.752;2022-10-16T06:08:20;12.80;88.10
22645;DHT22;11489;50.834;6.752;2022-10-16T06:10:47;12.80;88.30
22645;DHT22;11489;50.834;6.752;2022-10-16T06:13:13;12.80;88.40
22645;DHT22;11489;50.834;6.752;2022-10-16T06:15:40;12.70;88.50
22645;DHT22;11489;50.834;6.752;2022-10-16T06:18:08;12.70;88.70
22645;DHT22;11489;50.834;6.752;2022-10-16T06:20:34;12.70;88.80
22645;DHT22;11489;50.834;6.752;2022-10-16T06:23:00;12.70;89.00
22645;DHT22;11489;50.834;6.752;2022-10-16T06:25:25;12.70;89.10
22645;DHT22;11489;50.834;6.752;2022-10-16T06:27:51;12.70;89.30
22645;DHT22;11489;50.834;6.752;2022-10-16T06:30:17;12.70;89.40
22645;DHT22;11489;50.834;6.752;2022-10-16T06:32:42;12.70;89.40
22645;DHT22;11489;50.834;6.752;2022-10-16T06:35:08;12.70;89.50
22645;DHT22;11489;50.834;6.752;2022-10-16T06:37:34;12.70;89.60
22645;DHT22;11489;50.834;6.752;2022-10-16T06:39:59;12.80;89.80
22645;DHT22;11489;50.834;6.752;2022-10-16T06:42:25;12.80;90.00
22645;DHT22;11489;50.834;6.752;2022-10-16T06:44:51;12.90;90.10
22645;DHT22;11489;50.834;6.752;2022-10-16T06:47:17;12.90;90.20
22645;DHT22;11489;50.834;6.752;2022-10-16T06:49:42;12.90;90.30
22645;DHT22;11489;50.834;6.752;2022-10-16T06:52:08;13.00;90.40
22645;DHT22;11489;50.834;6.752;2022-10-16T06:54:34;13.10;90.40
22645;DHT22;11489;50.834;6.752;2022-10-16T06:56:59;13.20;90.40
22645;DHT22;11489;50.834;6.752;2022-10-16T06:59:27;13.30;90.40
22645;DHT22;11489;50.834;6.752;2022-10-16T07:01:52;13.40;90.40
22645;DHT22;11489;50.834;6.752;2022-10-16T07:04:18;13.40;90.30
22645;DHT22;11489;50.834;6.752;2022-10-16T07:06:44;13.50;90.30
22645;DHT22;11489;50.834;6.752;2022-10-16T07:09:10;13.60;90.30
22645;DHT22;11489;50.834;6.752;2022-10-16T07:11:38;13.70;90.30
22645;DHT22;11489;50.834;6.752;2022-10-16T07:14:04;13.80;90.30
22645;DHT22;11489;50.834;6.752;2022-10-16T07:16:31;13.80;90.20
22645;DHT22;11489;50.834;6.752;2022-10-16T07:18:59;13.90;90.20
22645;DHT22;11489;50.834;6.752;2022-10-16T07:21:33;14.00;90.20
22645;DHT22;11489;50.834;6.752;2022-10-16T07:24:04;14.00;90.10
22645;DHT22;11489;50.834;6.752;2022-10-16T07:26:33;14.10;90.00
22645;DHT22;11489;50.834;6.752;2022-10-16T07:28:59;14.20;90.10
22645;DHT22;11489;50.834;6.752;2022-10-16T07:31:26;14.30;90.10
22645;DHT22;11489;50.834;6.752;2022-10-16T07:33:52;14.30;90.10
22645;DHT22;11489;50.834;6.752;2022-10-16T07:36:19;14.40;90.00
22645;DHT22;11489;50.834;6.752;2022-10-16T07:38:46;14.50;89.80
22645;DHT22;11489;50.834;6.752;2022-10-16T07:41:17;14.60;89.70
22645;DHT22;11489;50.834;6.752;2022-10-16T07:43:51;14.60;89.40
22645;DHT22;11489;50.834;6.752;2022-10-16T07:46:18;14.60;89.20
22645;DHT22;11489;50.834;6.752;2022-10-16T07:48:44;14.70;89.00
22645;DHT22;11489;50.834;6.752;2022-10-16T07:51:22;14.70;89.00
22645;DHT22;11489;50.834;6.752;2022-10-16T07:53:49;14.70;88.90
22645;DHT22;11489;50.834;6.752;2022-10-16T07:56:15;14.80;88.90
22645;DHT22;11489;50.834;6.752;2022-10-16T07:58:41;14.80;88.80
22645;DHT22;11489;50.834;6.752;2022-10-16T08:01:10;14.80;88.80
22645;DHT22;11489;50.834;6.752;2022-10-16T08:03:36;14.80;88.80
22645;DHT22;11489;50.834;6.752;2022-10-16T08:06:02;14.90;88.80
22645;DHT22;11489;50.834;6.752;2022-10-16T08:08:29;14.90;88.80
22645;DHT22;11489;50.834;6.752;2022-10-16T08:10:54;15.00;88.80
22645;DHT22;11489;50.834;6.752;2022-10-16T08:13:20;15.00;88.90
22645;DHT22;11489;50.834;6.752;2022-10-16T08:15:46;15.00;89.10
22645;DHT22;11489;50.834;6.752;2022-10-16T08:18:13;15.10;89.30
22645;DHT22;11489;50.834;6.752;2022-10-16T08:20:40;15.20;89.20
22645;DHT22;11489;50.834;6.752;2022-10-16T08:23:06;15.30;89.20
22645;DHT22;11489;50.834;6.752;2022-10-16T08:25:35;15.40;89.20
22645;DHT22;11489;50.834;6.752;2022-10-16T08:28:04;15.50;89.10
22645;DHT22;11489;50.834;6.752;2022-10-16T08:30:31;15.60;89.00
22645;DHT22;11489;50.834;6.752;2022-10-16T08:32:57;15.70;88.90
22645;DHT22;11489;50.834;6.752;2022-10-16T08:35:23;15.80;88.80
22645;DHT22;11489;50.834;6.752;2022-10-16T08:37:49;15.90;88.70
22645;DHT22;11489;50.834;6.752;2022-10-16T08:40:19;16.00;88.60
22645;DHT22;11489;50.834;6.752;2022-10-16T08:45:43;16.30;88.30
22645;DHT22;11489;50.834;6.752;2022-10-16T08:48:29;16.50;87.40
22645;DHT22;11489;50.834;6.752;2022-10-16T08:50:56;16.70;88.10
22645;DHT22;11489;50.834;6.752;2022-10-16T08:53:43;16.80;88.30
22645;DHT22;11489;50.834;6.752;2022-10-16T08:56:10;17.10;87.20
22645;DHT22;11489;50.834;6.752;2022-10-16T08:58:35;17.30;88.10
22645;DHT22;11489;50.834;6.752;2022-10-16T09:01:04;17.50;87.90
22645;DHT22;11489;50.834;6.752;2022-10-16T09:20:00;19.20;82.80
22645;DHT22;11489;50.834;6.752;2022-10-16T09:22:29;19.40;82.90
22645;DHT22;11489;50.834;6.752;2022-10-16T09:25:00;19.50;83.40
22645;DHT22;11489;50.834;6.752;2022-10-16T09:27:26;19.60;82.20
22645;DHT22;11489;50.834;6.752;2022-10-16T09:29:53;19.70;82.40
22645;DHT22;11489;50.834;6.752;2022-10-16T09:32:20;19.80;82.30
22645;DHT22;11489;50.834;6.752;2022-10-16T09:34:50;19.90;82.30
22645;DHT22;11489;50.834;6.752;2022-10-16T09:37:19;20.10;82.40
22645;DHT22;11489;50.834;6.752;2022-10-16T09:42:21;20.50;81.50
22645;DHT22;11489;50.834;6.752;2022-10-16T09:44:52;20.70;81.10
22645;DHT22;11489;50.834;6.752;2022-10-16T09:47:25;21.00;80.80
22645;DHT22;11489;50.834;6.752;2022-10-16T09:49:59;21.30;79.50
22645;DHT22;11489;50.834;6.752;2022-10-16T09:52:28;21.50;78.20
22645;DHT22;11489;50.834;6.752;2022-10-16T09:54:56;21.70;79.20
22645;DHT22;11489;50.834;6.752;2022-10-16T09:57:23;21.90;78.40
22645;DHT22;11489;50.834;6.752;2022-10-16T09:59:51;22.10;78.00
22645;DHT22;11489;50.834;6.752;2022-10-16T10:02:20;22.30;77.50
22645;DHT22;11489;50.834;6.752;2022-10-16T10:04:53;22.50;77.10
22645;DHT22;11489;50.834;6.752;2022-10-16T10:07:27;22.80;75.80
22645;DHT22;11489;50.834;6.752;2022-10-16T10:09:55;23.00;74.70
22645;DHT22;11489;50.834;6.752;2022-10-16T10:12:24;23.20;74.60
22645;DHT22;11489;50.834;6.752;2022-10-16T10:14:52;23.30;73.50
22645;DHT22;11489;50.834;6.752;2022-10-16T10:17:28;23.40;72.60
22645;DHT22;11489;50.834;6.752;2022-10-16T10:19:57;23.40;69.50
22645;DHT22;11489;50.834;6.752;2022-10-16T10:25:12;23.30;70.70
22645;DHT22;11489;50.834;6.752;2022-10-16T10:27:57;23.30;71.10
22645;DHT22;11489;50.834;6.752;2022-10-16T10:31:00;23.30;70.80
22645;DHT22;11489;50.834;6.752;2022-10-16T10:33:58;23.30;67.60
22645;DHT22;11489;50.834;6.752;2022-10-16T10:39:00;23.20;69.20
22645;DHT22;11489;50.834;6.752;2022-10-16T10:44:39;23.30;67.70
22645;DHT22;11489;50.834;6.752;2022-10-16T10:47:28;23.50;69.50
22645;DHT22;11489;50.834;6.752;2022-10-16T10:50:02;23.80;68.00
22645;DHT22;11489;50.834;6.752;2022-10-16T10:55:09;24.20;69.90
22645;DHT22;11489;50.834;6.752;2022-10-16T11:08:46;25.00;65.40
22645;DHT22;11489;50.834;6.752;2022-10-16T11:11:20;25.00;64.90
22645;DHT22;11489;50.834;6.752;2022-10-16T11:16:43;25.00;62.10
22645;DHT22;11489;50.834;6.752;2022-10-16T11:19:28;25.10;64.10
22645;DHT22;11489;50.834;6.752;2022-10-16T11:22:16;25.20;61.70
22645;DHT22;11489;50.834;6.752;2022-10-16T11:24:54;25.10;60.50
22645;DHT22;11489;50.834;6.752;2022-10-16T11:27:40;25.10;61.70
22645;DHT22;11489;50.834;6.752;2022-10-16T11:30:25;24.90;61.60
22645;DHT22;11489;50.834;6.752;2022-10-16T11:35:49;24.90;60.10
22645;DHT22;11489;50.834;6.752;2022-10-16T11:40:47;24.80;61.80
22645;DHT22;11489;50.834;6.752;2022-10-16T11:43:21;24.70;60.20
22645;DHT22;11489;50.834;6.752;2022-10-16T11:45:53;24.70;60.40
22645;DHT22;11489;50.834;6.752;2022-10-16T11:50:53;24.40;59.50
22645;DHT22;11489;50.834;6.752;2022-10-16T11:53:42;24.30;59.70
22645;DHT22;11489;50.834;6.752;2022-10-16T11:56:13;24.10;58.30
22645;DHT22;11489;50.834;6.752;2022-10-16T12:02:26;23.80;58.50
22645;DHT22;11489;50.834;6.752;2022-10-16T12:05:11;23.60;58.60
22645;DHT22;11489;50.834;6.752;2022-10-16T12:10:35;23.30;59.80
22645;DHT22;11489;50.834;6.752;2022-10-16T12:13:05;23.20;60.80
22645;DHT22;11489;50.834;6.752;2022-10-16T12:15:33;23.10;60.70
22645;DHT22;11489;50.834;6.752;2022-10-16T12:17:59;22.90;60.30
22645;DHT22;11489;50.834;6.752;2022-10-16T12:20:30;22.80;60.50
22645;DHT22;11489;50.834;6.752;2022-10-16T12:23:02;22.60;59.90
22645;DHT22;11489;50.834;6.752;2022-10-16T12:25:34;22.40;60.30
22645;DHT22;11489;50.834;6.752;2022-10-16T12:28:03;22.30;60.50
22645;DHT22;11489;50.834;6.752;2022-10-16T12:30:32;22.20;61.70
22645;DHT22;11489;50.834;6.752;2022-10-16T12:33:01;22.10;62.00
22645;DHT22;11489;50.834;6.752;2022-10-16T12:35:30;22.10;62.30
22645;DHT22;11489;50.834;6.752;2022-10-16T12:38:19;22.20;62.30
22645;DHT22;11489;50.834;6.752;2022-10-16T12:40:55;22.30;60.90
22645;DHT22;11489;50.834;6.752;2022-10-16T12:43:25;22.40;62.80
22645;DHT22;11489;50.834;6.752;2022-10-16T12:48:29;22.70;60.70
22645;DHT22;11489;50.834;6.752;2022-10-16T12:50:55;22.80;61.90
22645;DHT22;11489;50.834;6.752;2022-10-16T12:53:23;22.80;61.40
22645;DHT22;11489;50.834;6.752;2022-10-16T13:07:59;23.00;59.70
22645;DHT22;11489;50.834;6.752;2022-10-16T13:16:14;23.00;59.30
22645;DHT22;11489;50.834;6.752;2022-10-16T13:22:24;22.90;59.70
22645;DHT22;11489;50.834;6.752;2022-10-16T13:25:05;22.90;59.30
22645;DHT22;11489;50.834;6.752;2022-10-16T13:28:00;22.90;59.40
22645;DHT22;11489;50.834;6.752;2022-10-16T13:30:28;22.90;60.90
22645;DHT22;11489;50.834;6.752;2022-10-16T13:33:00;22.90;60.90
22645;DHT22;11489;50.834;6.752;2022-10-16T13:35:29;23.00;59.90
22645;DHT22;11489;50.834;6.752;2022-10-16T13:40:36;23.00;59.10
22645;DHT22;11489;50.834;6.752;2022-10-16T13:43:02;23.00;60.20
22645;DHT22;11489;50.834;6.752;2022-10-16T13:45:28;23.00;60.40
22645;DHT22;11489;50.834;6.752;2022-10-16T13:48:05;23.00;60.50
22645;DHT22;11489;50.834;6.752;2022-10-16T13:50:31;23.10;59.60
22645;DHT22;11489;50.834;6.752;2022-10-16T13:53:13;23.20;60.80
22645;DHT22;11489;50.834;6.752;2022-10-16T13:55:39;23.30;59.00
22645;DHT22;11489;50.834;6.752;2022-10-16T13:58:08;23.30;60.00
22645;DHT22;11489;50.834;6.752;2022-10-16T14:00:34;23.30;59.60
22645;DHT22;11489;50.834;6.752;2022-10-16T14:03:06;23.40;59.80
22645;DHT22;11489;50.834;6.752;2022-10-16T14:05:33;23.30;59.50
22645;DHT22;11489;50.834;6.752;2022-10-16T14:08:00;23.30;59.80
22645;DHT22;11489;50.834;6.752;2022-10-16T14:10:31;23.30;59.70
22645;DHT22;11489;50.834;6.752;2022-10-16T14:13:03;23.30;59.00
22645;DHT22;11489;50.834;6.752;2022-10-16T14:15:31;23.30;59.00
22645;DHT22;11489;50.834;6.752;2022-10-16T14:17:58;23.20;59.10
22645;DHT22;11489;50.834;6.752;2022-10-16T14:20:27;23.10;59.10
22645;DHT22;11489;50.834;6.752;2022-10-16T14:23:00;23.00;59.10
22645;DHT22;11489;50.834;6.752;2022-10-16T14:25:29;22.90;59.50
22645;DHT22;11489;50.834;6.752;2022-10-16T14:28:23;22.70;59.30
22645;DHT22;11489;50.834;6.752;2022-10-16T14:30:55;22.70;58.60
22645;DHT22;11489;50.834;6.752;2022-10-16T14:36:21;22.40;59.70
22645;DHT22;11489;50.834;6.752;2022-10-16T14:39:17;22.30;59.00
22645;DHT22;11489;50.834;6.752;2022-10-16T14:41:47;22.20;59.30
22645;DHT22;11489;50.834;6.752;2022-10-16T14:44:13;22.10;60.20
22645;DHT22;11489;50.834;6.752;2022-10-16T14:46:41;22.10;60.70
22645;DHT22;11489;50.834;6.752;2022-10-16T14:51:38;22.00;60.90
22645;DHT22;11489;50.834;6.752;2022-10-16T14:54:04;22.00;61.20
22645;DHT22;11489;50.834;6.752;2022-10-16T14:56:34;22.00;61.30
22645;DHT22;11489;50.834;6.752;2022-10-16T14:59:02;22.00;61.30
22645;DHT22;11489;50.834;6.752;2022-10-16T15:01:28;21.90;61.40
22645;DHT22;11489;50.834;6.752;2022-10-16T15:03:53;21.90;61.40
22645;DHT22;11489;50.834;6.752;2022-10-16T15:06:21;21.90;61.40
22645;DHT22;11489;50.834;6.752;2022-10-16T15:08:47;21.80;61.40
22645;DHT22;11489;50.834;6.752;2022-10-16T15:11:18;21.80;61.40
22645;DHT22;11489;50.834;6.752;2022-10-16T15:13:44;21.80;61.40
22645;DHT22;11489;50.834;6.752;2022-10-16T15:16:15;21.70;61.50
22645;DHT22;11489;50.834;6.752;2022-10-16T15:18:42;21.70;61.20
22645;DHT22;11489;50.834;6.752;2022-10-16T15:21:08;21.60;61.50
22645;DHT22;11489;50.834;6.752;2022-10-16T15:23:38;21.60;61.60
22645;DHT22;11489;50.834;6.752;2022-10-16T15:26:04;21.50;61.80
22645;DHT22;11489;50.834;6.752;2022-10-16T15:28:29;21.50;62.00
22645;DHT22;11489;50.834;6.752;2022-10-16T15:30:56;21.40;62.10
22645;DHT22;11489;50.834;6.752;2022-10-16T15:33:25;21.30;62.10
22645;DHT22;11489;50.834;6.752;2022-10-16T15:35:53;21.30;62.20
22645;DHT22;11489;50.834;6.752;2022-10-16T15:38:20;21.20;63.10
22645;DHT22;11489;50.834;6.752;2022-10-16T15:40:47;21.20;62.60
22645;DHT22;11489;50.834;6.752;2022-10-16T15:43:13;21.10;62.80
22645;DHT22;11489;50.834;6.752;2022-10-16T15:45:39;21.00;63.00
22645;DHT22;11489;50.834;6.752;2022-10-16T15:48:05;20.90;63.10
22645;DHT22;11489;50.834;6.752;2022-10-16T15:50:32;20.90;63.30
22645;DHT22;11489;50.834;6.752;2022-10-16T15:52:58;20.80;63.50
22645;DHT22;11489;50.834;6.752;2022-10-16T15:55:24;20.80;63.70
22645;DHT22;11489;50.834;6.752;2022-10-16T15:57:49;20.70;63.80
22645;DHT22;11489;50.834;6.752;2022-10-16T16:00:18;20.60;63.90
22645;DHT22;11489;50.834;6.752;2022-10-16T16:02:51;20.60;64.00
22645;DHT22;11489;50.834;6.752;2022-10-16T16:05:17;20.50;64.10
22645;DHT22;11489;50.834;6.752;2022-10-16T16:07:43;20.40;64.30
22645;DHT22;11489;50.834;6.752;2022-10-16T16:10:10;20.40;64.50
22645;DHT22;11489;50.834;6.752;2022-10-16T16:12:36;20.30;64.60
22645;DHT22;11489;50.834;6.752;2022-10-16T16:15:06;20.20;64.70
22645;DHT22;11489;50.834;6.752;2022-10-16T16:17:33;20.10;65.00
22645;DHT22;11489;50.834;6.752;2022-10-16T16:19:58;20.00;65.20
22645;DHT22;11489;50.834;6.752;2022-10-16T16:22:24;19.90;65.40
22645;DHT22;11489;50.834;6.752;2022-10-16T16:24:50;19.80;65.60
22645;DHT22;11489;50.834;6.752;2022-10-16T16:27:16;19.70;65.80
22645;DHT22;11489;50.834;6.752;2022-10-16T16:29:42;19.70;66.00
22645;DHT22;11489;50.834;6.752;2022-10-16T16:32:08;19.60;66.20
22645;DHT22;11489;50.834;6.752;2022-10-16T16:34:34;19.50;66.40
22645;DHT22;11489;50.834;6.752;2022-10-16T16:37:00;19.40;66.60
22645;DHT22;11489;50.834;6.752;2022-10-16T16:39:25;19.30;66.80
22645;DHT22;11489;50.834;6.752;2022-10-16T16:41:51;19.30;67.10
22645;DHT22;11489;50.834;6.752;2022-10-16T16:44:17;19.20;67.30
22645;DHT22;11489;50.834;6.752;2022-10-16T16:46:43;19.10;67.50
22645;DHT22;11489;50.834;6.752;2022-10-16T16:49:11;19.10;67.70
22645;DHT22;11489;50.834;6.752;2022-10-16T16:51:38;19.00;67.90
22645;DHT22;11489;50.834;6.752;2022-10-16T16:54:03;19.00;68.10
22645;DHT22;11489;50.834;6.752;2022-10-16T16:56:29;18.90;68.20
22645;DHT22;11489;50.834;6.752;2022-10-16T16:58:56;18.90;68.40
22645;DHT22;11489;50.834;6.752;2022-10-16T17:01:24;18.90;68.70
22645;DHT22;11489;50.834;6.752;2022-10-16T17:03:53;18.80;68.90
22645;DHT22;11489;50.834;6.752;2022-10-16T17:06:20;18.80;69.20
22645;DHT22;11489;50.834;6.752;2022-10-16T17:08:47;18.80;69.30
22645;DHT22;11489;50.834;6.752;2022-10-16T17:11:17;18.70;69.40
22645;DHT22;11489;50.834;6.752;2022-10-16T17:13:43;18.70;69.70
22645;DHT22;11489;50.834;6.752;2022-10-16T17:16:10;18.60;69.70
22645;DHT22;11489;50.834;6.752;2022-10-16T17:18:36;18.60;69.90
22645;DHT22;11489;50.834;6.752;2022-10-16T17:21:05;18.60;70.10
22645;DHT22;11489;50.834;6.752;2022-10-16T17:23:31;18.50;70.20
22645;DHT22;11489;50.834;6.752;2022-10-16T17:26:06;18.50;70.20